Time;durP1;ratioP1;P1;durP2;ratioP2;P2;SDS_P1;SDS_P2;PMS_P1;PMS_P2;Temp;Humidity;BMP_temperature;BMP_pressure;BME280_temperature;BME280_humidity;BME280_pressure;Samples;Min_cycle;Max_cycle;Signal;HPM_P1;HPM_P2
2023/09/20 00:00:32;;;;;;;;;1.00;1.00;;;;;;;;5086631;27;45886;-79
2023/09/20 00:02:58;;;;;;;;;0.25;0.25;;;;;;;;5085988;27;45408;-80
2023/09/20 00:05:23;;;;;;;;;0.25;0.25;;;;;;;;5075232;27;45362;-79
2023/09/20 00:07:54;;;;;;;;;1.75;0.25;;;;;;;;5072969;27;45797;-79
2023/09/20 00:10:19;;;;;;;;;1.00;1.00;;;;;;;;5079997;27;46062;-78
2023/09/20 00:12:45;;;;;;;;;0.00;0.00;;;;;;;;5084764;27;45298;-80
2023/09/20 00:15:11;;;;;;;;;0.50;0.50;;;;;;;;5077915;27;45463;-79
2023/09/20 00:17:37;;;;;;;;;2.50;0.00;;;;;;;;5089727;27;45935;-79
2023/09/20 00:20:11;;;;;;;;;0.00;0.00;;;;;;;;5090042;27;45723;-80
2023/09/20 00:22:41;;;;;;;;;0.50;0.00;;;;;;;;5092411;27;45736;-80
2023/09/20 00:25:15;;;;;;;;;0.00;0.00;;;;;;;;5080185;27;45626;-80
2023/09/20 00:27:41;;;;;;;;;0.00;0.00;;;;;;;;5078130;27;46629;-79
2023/09/20 00:30:10;;;;;;;;;0.75;0.00;;;;;;;;5081666;27;46711;-80
2023/09/20 00:32:39;;;;;;;;;0.50;0.50;;;;;;;;5091270;27;45841;-80
2023/09/20 00:35:05;;;;;;;;;0.00;0.00;;;;;;;;5073718;27;45517;-80
2023/09/20 00:37:30;;;;;;;;;0.25;0.25;;;;;;;;5081879;27;46193;-79
2023/09/20 00:39:55;;;;;;;;;0.00;0.00;;;;;;;;5095585;27;45519;-80
2023/09/20 00:42:21;;;;;;;;;0.00;0.00;;;;;;;;5088316;27;45758;-79
2023/09/20 00:44:46;;;;;;;;;0.00;0.00;;;;;;;;5085834;27;45740;-81
2023/09/20 00:47:11;;;;;;;;;0.00;0.00;;;;;;;;5096564;27;45846;-80
2023/09/20 00:49:37;;;;;;;;;0.00;0.00;;;;;;;;5077127;27;47066;-79
2023/09/20 00:52:06;;;;;;;;;2.00;1.00;;;;;;;;5092794;27;45545;-79
2023/09/20 00:54:31;;;;;;;;;0.50;0.00;;;;;;;;5089472;27;45424;-78
2023/09/20 00:56:56;;;;;;;;;1.00;1.00;;;;;;;;5092709;27;45756;-79
2023/09/20 00:59:22;;;;;;;;;1.75;1.00;;;;;;;;5092552;27;46103;-79
2023/09/20 01:01:47;;;;;;;;;0.00;0.00;;;;;;;;5087093;27;45446;-79
2023/09/20 01:04:13;;;;;;;;;0.75;0.00;;;;;;;;5081023;27;45315;-79
2023/09/20 01:06:41;;;;;;;;;0.00;0.00;;;;;;;;5084929;27;45970;-78
2023/09/20 01:09:06;;;;;;;;;1.50;0.00;;;;;;;;5073780;27;47826;-78
2023/09/20 01:11:32;;;;;;;;;0.00;0.00;;;;;;;;5080034;27;46343;-79
2023/09/20 01:13:59;;;;;;;;;2.00;1.00;;;;;;;;5083031;27;45528;-78
2023/09/20 01:16:24;;;;;;;;;2.00;1.00;;;;;;;;5085976;27;45569;-80
2023/09/20 01:18:50;;;;;;;;;0.00;0.00;;;;;;;;5078760;27;45770;-80
2023/09/20 01:21:16;;;;;;;;;1.00;1.00;;;;;;;;5079600;27;45806;-77
2023/09/20 01:23:42;;;;;;;;;1.00;1.00;;;;;;;;5073067;27;45398;-80
2023/09/20 01:26:08;;;;;;;;;1.50;1.50;;;;;;;;5080368;27;46231;-79
2023/09/20 01:28:35;;;;;;;;;2.50;1.00;;;;;;;;5084463;27;45993;-79
2023/09/20 01:31:04;;;;;;;;;0.00;0.00;;;;;;;;5091468;27;45926;-79
2023/09/20 01:33:29;;;;;;;;;1.00;0.50;;;;;;;;5088579;27;45753;-79
2023/09/20 01:35:55;;;;;;;;;0.50;0.25;;;;;;;;5081912;27;45897;-79
2023/09/20 01:38:20;;;;;;;;;0.00;0.00;;;;;;;;5088596;27;45530;-81
2023/09/20 01:40:46;;;;;;;;;1.00;1.00;;;;;;;;5094371;27;45870;-78
2023/09/20 01:43:13;;;;;;;;;1.25;0.75;;;;;;;;5092875;27;45559;-78
2023/09/20 01:45:38;;;;;;;;;1.50;1.50;;;;;;;;5091885;27;45860;-79
2023/09/20 01:48:10;;;;;;;;;4.00;0.00;;;;;;;;5079609;27;47176;-78
2023/09/20 01:50:36;;;;;;;;;1.00;1.00;;;;;;;;5094990;27;45648;-79
2023/09/20 01:53:05;;;;;;;;;2.00;1.00;;;;;;;;5094810;27;45877;-80
2023/09/20 01:55:31;;;;;;;;;1.00;1.00;;;;;;;;5082742;27;45460;-80
2023/09/20 01:57:57;;;;;;;;;1.00;1.00;;;;;;;;5084757;27;45775;-79
2023/09/20 02:00:32;;;;;;;;;0.25;0.00;;;;;;;;5091371;27;45475;-78
2023/09/20 02:02:58;;;;;;;;;0.00;0.00;;;;;;;;5088714;27;45941;-79
2023/09/20 02:05:24;;;;;;;;;0.75;0.75;;;;;;;;5094741;27;45671;-78
2023/09/20 02:07:51;;;;;;;;;1.75;0.50;;;;;;;;5087074;27;46545;-79
2023/09/20 02:10:17;;;;;;;;;4.00;1.00;;;;;;;;5076224;27;45530;-80
2023/09/20 02:12:51;;;;;;;;;0.00;0.00;;;;;;;;5088414;27;45474;-79
2023/09/20 02:15:17;;;;;;;;;1.00;1.00;;;;;;;;5094264;27;45583;-79
2023/09/20 02:17:43;;;;;;;;;1.00;0.00;;;;;;;;5089228;27;46537;-79
2023/09/20 02:20:19;;;;;;;;;0.00;0.00;;;;;;;;5095748;27;45427;-81
2023/09/20 02:22:46;;;;;;;;;1.00;1.00;;;;;;;;5099026;27;45443;-81
2023/09/20 02:25:11;;;;;;;;;0.00;0.00;;;;;;;;5098941;27;45446;-80
2023/09/20 02:27:44;;;;;;;;;0.00;0.00;;;;;;;;5095309;27;45748;-79
2023/09/20 02:30:15;;;;;;;;;1.25;1.25;;;;;;;;5099138;27;45339;-80
2023/09/20 02:32:41;;;;;;;;;0.00;0.00;;;;;;;;5100347;27;45687;-79
2023/09/20 02:35:06;;;;;;;;;0.75;0.75;;;;;;;;5099420;27;45376;-80
2023/09/20 02:37:33;;;;;;;;;1.50;0.00;;;;;;;;5085556;27;45432;-80
2023/09/20 02:39:58;;;;;;;;;0.75;0.75;;;;;;;;5093843;27;45857;-79
2023/09/20 02:42:26;;;;;;;;;0.50;0.00;;;;;;;;5085765;27;46269;-79
2023/09/20 02:44:51;;;;;;;;;0.00;0.00;;;;;;;;5106046;27;45825;-79
2023/09/20 02:47:18;;;;;;;;;1.00;1.00;;;;;;;;5105834;27;46057;-79
2023/09/20 02:49:44;;;;;;;;;0.00;0.00;;;;;;;;5107518;27;45468;-79
2023/09/20 02:52:09;;;;;;;;;1.50;1.00;;;;;;;;5084485;27;45308;-78
2023/09/20 02:54:35;;;;;;;;;1.00;1.00;;;;;;;;5090133;27;45538;-79
2023/09/20 02:57:00;;;;;;;;;3.00;0.75;;;;;;;;5082760;27;45834;-79
2023/09/20 02:59:25;;;;;;;;;2.00;1.00;;;;;;;;5102035;27;45471;-79
2023/09/20 03:01:51;;;;;;;;;2.25;1.00;;;;;;;;5086341;27;45357;-80
2023/09/20 03:04:16;;;;;;;;;1.00;1.00;;;;;;;;5078981;27;45432;-79
2023/09/20 03:06:44;;;;;;;;;1.00;1.00;;;;;;;;5082407;27;45562;-80
2023/09/20 03:09:10;;;;;;;;;0.25;0.25;;;;;;;;5096030;27;45483;-80
2023/09/20 03:11:37;;;;;;;;;1.00;1.00;;;;;;;;5081691;27;45362;-79
2023/09/20 03:14:03;;;;;;;;;0.50;0.50;;;;;;;;5086491;27;46087;-78
2023/09/20 03:16:28;;;;;;;;;0.75;0.75;;;;;;;;5087725;27;46757;-80
2023/09/20 03:18:54;;;;;;;;;1.25;1.00;;;;;;;;5080812;27;45476;-78
2023/09/20 03:21:23;;;;;;;;;0.00;0.00;;;;;;;;5087601;27;45581;-80
2023/09/20 03:23:48;;;;;;;;;0.25;0.25;;;;;;;;5077472;27;45697;-79
2023/09/20 03:26:16;;;;;;;;;0.00;0.00;;;;;;;;5085547;27;46084;-79
2023/09/20 03:28:43;;;;;;;;;0.25;0.00;;;;;;;;5084753;27;45926;-79
2023/09/20 03:31:10;;;;;;;;;1.00;1.00;;;;;;;;5078109;27;45479;-79
2023/09/20 03:33:36;;;;;;;;;1.00;1.00;;;;;;;;5083250;27;45766;-79
2023/09/20 03:36:04;;;;;;;;;2.00;1.00;;;;;;;;5090808;27;45468;-80
2023/09/20 03:38:29;;;;;;;;;1.00;1.00;;;;;;;;5090307;27;45392;-80
2023/09/20 03:40:54;;;;;;;;;0.75;0.75;;;;;;;;5093701;27;46046;-78
2023/09/20 03:43:19;;;;;;;;;1.00;1.00;;;;;;;;5081715;27;45914;-79
2023/09/20 03:45:45;;;;;;;;;0.50;0.50;;;;;;;;5072477;27;47202;-79
2023/09/20 03:48:10;;;;;;;;;1.00;1.00;;;;;;;;5079877;27;45747;-79
2023/09/20 03:50:38;;;;;;;;;1.00;0.00;;;;;;;;5085110;27;45517;-80
2023/09/20 03:53:04;;;;;;;;;2.00;1.00;;;;;;;;5076404;27;46500;-79
2023/09/20 03:55:30;;;;;;;;;1.50;1.00;;;;;;;;5072898;27;45892;-80
2023/09/20 03:57:56;;;;;;;;;2.75;1.75;;;;;;;;5085735;27;45338;-79
2023/09/20 04:00:31;;;;;;;;;1.00;1.00;;;;;;;;5079936;27;45694;-79
2023/09/20 04:02:56;;;;;;;;;2.00;2.00;;;;;;;;5084958;27;46297;-79
2023/09/20 04:05:22;;;;;;;;;0.50;0.50;;;;;;;;5090914;27;47174;-79
2023/09/20 04:07:48;;;;;;;;;0.00;0.00;;;;;;;;5090468;27;45406;-80
2023/09/20 04:10:17;;;;;;;;;1.00;0.00;;;;;;;;5088477;27;45450;-81
2023/09/20 04:12:43;;;;;;;;;2.00;1.00;;;;;;;;5075289;27;47025;-79
2023/09/20 04:15:08;;;;;;;;;1.00;1.00;;;;;;;;5091695;27;45619;-80
2023/09/20 04:17:35;;;;;;;;;1.25;1.25;;;;;;;;5091021;27;45671;-79
2023/09/20 04:20:07;;;;;;;;;0.50;0.00;;;;;;;;5095518;27;45809;-82
2023/09/20 04:22:34;;;;;;;;;1.75;0.75;;;;;;;;5087208;27;46244;-81
2023/09/20 04:24:59;;;;;;;;;0.50;0.50;;;;;;;;5095413;27;46764;-79
2023/09/20 04:27:25;;;;;;;;;1.00;1.00;;;;;;;;5088551;27;45884;-80
2023/09/20 04:29:50;;;;;;;;;2.00;1.00;;;;;;;;5091946;27;45797;-80
2023/09/20 04:32:17;;;;;;;;;2.00;2.00;;;;;;;;5095830;27;46252;-80
2023/09/20 04:34:43;;;;;;;;;1.25;0.50;;;;;;;;5092317;27;47171;-80
2023/09/20 04:37:09;;;;;;;;;1.00;0.00;;;;;;;;5087951;27;45467;-79
2023/09/20 04:39:34;;;;;;;;;1.00;0.25;;;;;;;;5086931;27;45464;-80
2023/09/20 04:41:59;;;;;;;;;1.00;1.00;;;;;;;;5081069;27;45638;-81
2023/09/20 04:44:24;;;;;;;;;0.00;0.00;;;;;;;;5085190;27;45383;-79
2023/09/20 04:46:49;;;;;;;;;1.00;1.00;;;;;;;;5088864;27;45448;-78
2023/09/20 04:49:15;;;;;;;;;1.00;1.00;;;;;;;;5085313;27;45839;-82
2023/09/20 04:51:42;;;;;;;;;0.00;0.00;;;;;;;;5087280;27;45709;-81
2023/09/20 04:54:07;;;;;;;;;1.00;1.00;;;;;;;;5080730;27;46973;-81
2023/09/20 04:56:33;;;;;;;;;2.00;2.00;;;;;;;;5088483;27;45693;-79
2023/09/20 04:58:58;;;;;;;;;2.00;2.00;;;;;;;;5093907;27;45305;-81
2023/09/20 05:01:24;;;;;;;;;1.75;1.75;;;;;;;;5080522;27;46293;-81
2023/09/20 05:03:50;;;;;;;;;2.75;2.00;;;;;;;;5088142;27;46008;-83
2023/09/20 05:06:16;;;;;;;;;2.00;0.50;;;;;;;;5086704;27;46548;-82
2023/09/20 05:08:41;;;;;;;;;1.75;0.00;;;;;;;;5087928;27;45502;-82
2023/09/20 05:11:10;;;;;;;;;0.75;0.75;;;;;;;;5095426;27;45592;-80
2023/09/20 05:13:35;;;;;;;;;2.00;1.00;;;;;;;;5090522;27;45638;-82
2023/09/20 05:16:01;;;;;;;;;1.00;1.00;;;;;;;;5085775;27;45737;-81
2023/09/20 05:18:28;;;;;;;;;3.00;2.25;;;;;;;;5096262;27;45386;-83
2023/09/20 05:20:53;;;;;;;;;3.00;2.00;;;;;;;;5095557;27;46061;-81
2023/09/20 05:23:19;;;;;;;;;0.25;0.00;;;;;;;;5094582;27;47861;-80
2023/09/20 05:25:44;;;;;;;;;3.75;0.00;;;;;;;;5093375;27;45748;-83
2023/09/20 05:28:10;;;;;;;;;1.00;1.00;;;;;;;;5095178;27;45430;-82
2023/09/20 05:30:35;;;;;;;;;0.75;0.75;;;;;;;;5080937;27;45712;-81
2023/09/20 05:33:00;;;;;;;;;0.50;0.00;;;;;;;;5100163;27;47149;-80
2023/09/20 05:35:26;;;;;;;;;1.00;0.00;;;;;;;;5096151;27;45738;-80
2023/09/20 05:37:51;;;;;;;;;2.50;0.50;;;;;;;;5085555;27;45745;-80
2023/09/20 05:40:21;;;;;;;;;0.50;0.50;;;;;;;;5098001;27;45746;-79
2023/09/20 05:42:46;;;;;;;;;1.00;1.00;;;;;;;;5091874;27;45705;-81
2023/09/20 05:45:12;;;;;;;;;1.25;1.25;;;;;;;;5095288;27;45783;-81
2023/09/20 05:47:38;;;;;;;;;1.75;1.00;;;;;;;;5087376;27;45666;-79
2023/09/20 05:50:03;;;;;;;;;1.75;1.75;;;;;;;;5086892;27;46672;-81
2023/09/20 05:52:29;;;;;;;;;0.25;0.25;;;;;;;;5094136;27;47347;-79
2023/09/20 05:54:55;;;;;;;;;1.50;1.00;;;;;;;;5089961;27;45503;-80
2023/09/20 05:57:22;;;;;;;;;1.75;1.75;;;;;;;;5092078;27;45835;-81
2023/09/20 05:59:47;;;;;;;;;2.00;1.75;;;;;;;;5092977;27;45742;-79
2023/09/20 06:02:12;;;;;;;;;1.50;0.50;;;;;;;;5084930;27;46759;-82
2023/09/20 06:04:38;;;;;;;;;1.00;1.00;;;;;;;;5087751;27;45591;-81
2023/09/20 06:07:04;;;;;;;;;0.75;0.75;;;;;;;;5090917;27;45900;-80
2023/09/20 06:09:30;;;;;;;;;0.75;0.75;;;;;;;;5087894;27;46065;-81
2023/09/20 06:11:55;;;;;;;;;2.00;2.00;;;;;;;;5083596;27;47198;-78
2023/09/20 06:14:22;;;;;;;;;1.25;1.25;;;;;;;;5097436;27;45666;-81
2023/09/20 06:16:47;;;;;;;;;2.50;1.00;;;;;;;;5089572;27;45291;-81
2023/09/20 06:19:14;;;;;;;;;1.25;1.25;;;;;;;;5086536;27;46761;-80
2023/09/20 06:21:39;;;;;;;;;2.00;2.00;;;;;;;;5087517;27;47295;-80
2023/09/20 06:24:08;;;;;;;;;1.50;1.00;;;;;;;;5091831;27;45584;-79
2023/09/20 06:26:34;;;;;;;;;4.25;1.00;;;;;;;;5084845;27;45691;-81
2023/09/20 06:29:03;;;;;;;;;3.00;2.00;;;;;;;;5090321;27;46310;-81
2023/09/20 06:31:28;;;;;;;;;4.00;2.50;;;;;;;;5091373;27;45380;-80
2023/09/20 06:33:56;;;;;;;;;1.25;1.25;;;;;;;;5086554;27;45493;-81
2023/09/20 06:36:22;;;;;;;;;3.00;3.00;;;;;;;;5092413;27;44861;-80
2023/09/20 06:38:49;;;;;;;;;1.25;1.00;;;;;;;;5084373;27;47354;-81
2023/09/20 06:41:15;;;;;;;;;4.75;3.00;;;;;;;;5088784;27;45563;-80
2023/09/20 06:43:42;;;;;;;;;2.00;2.00;;;;;;;;5085238;27;45918;-79
2023/09/20 06:46:08;;;;;;;;;2.00;2.00;;;;;;;;5090208;27;45883;-78
2023/09/20 06:48:33;;;;;;;;;3.00;1.75;;;;;;;;5089483;27;45944;-80
2023/09/20 06:51:00;;;;;;;;;2.00;2.00;;;;;;;;5089397;27;47190;-79
2023/09/20 06:53:25;;;;;;;;;2.75;2.00;;;;;;;;5090810;27;45629;-80
2023/09/20 06:55:50;;;;;;;;;2.00;2.00;;;;;;;;5081937;27;45804;-79
2023/09/20 06:58:16;;;;;;;;;1.75;1.75;;;;;;;;5081738;27;46468;-80
2023/09/20 07:00:41;;;;;;;;;2.00;2.00;;;;;;;;5080883;27;46442;-79
2023/09/20 07:03:07;;;;;;;;;3.00;3.00;;;;;;;;5091077;27;45549;-79
2023/09/20 07:05:33;;;;;;;;;2.50;1.75;;;;;;;;5092340;27;45748;-79
2023/09/20 07:08:01;;;;;;;;;3.75;1.00;;;;;;;;5088487;27;45591;-79
2023/09/20 07:10:28;;;;;;;;;2.00;2.00;;;;;;;;5087683;27;47046;-79
2023/09/20 07:12:54;;;;;;;;;3.75;2.25;;;;;;;;5089425;27;46007;-80
2023/09/20 07:15:20;;;;;;;;;2.00;2.00;;;;;;;;5085464;27;45423;-79
2023/09/20 07:17:45;;;;;;;;;2.00;2.00;;;;;;;;5090318;27;45756;-80
2023/09/20 07:20:17;;;;;;;;;1.00;1.00;;;;;;;;5082298;27;46967;-80
2023/09/20 07:22:43;;;;;;;;;2.00;2.00;;;;;;;;5092336;27;45477;-80
2023/09/20 07:25:20;;;;;;;;;0.75;0.75;;;;;;;;5092174;27;45904;-80
2023/09/20 07:27:47;;;;;;;;;5.00;2.00;;;;;;;;5090498;27;45802;-79
2023/09/20 07:30:18;;;;;;;;;3.50;2.00;;;;;;;;5066562;27;46252;-80
2023/09/20 07:32:47;;;;;;;;;3.00;2.25;;;;;;;;5041345;28;45494;-80
2023/09/20 07:35:36;;;;;;;;;3.50;2.25;;;;;;;;5036087;28;45463;-80
2023/09/20 07:38:03;;;;;;;;;2.25;2.25;;;;;;;;5061702;28;45780;-80
2023/09/20 07:40:30;;;;;;;;;3.00;1.00;;;;;;;;5056978;28;45600;-79
2023/09/20 07:43:07;;;;;;;;;1.00;1.00;;;;;;;;5048753;28;45968;-78
2023/09/20 07:45:38;;;;;;;;;1.25;1.25;;;;;;;;5056189;28;45474;-79
2023/09/20 07:48:13;;;;;;;;;2.25;2.00;;;;;;;;5053923;28;46162;-79
2023/09/20 07:50:40;;;;;;;;;0.75;0.75;;;;;;;;5046008;28;46885;-78
2023/09/20 07:53:06;;;;;;;;;1.00;1.00;;;;;;;;5051107;28;45514;-79
2023/09/20 07:55:34;;;;;;;;;1.25;1.25;;;;;;;;5039188;28;45569;-80
2023/09/20 07:57:59;;;;;;;;;5.00;3.25;;;;;;;;5037028;28;46987;-80
2023/09/20 08:00:26;;;;;;;;;4.00;2.25;;;;;;;;5040640;28;47202;-82
2023/09/20 08:02:54;;;;;;;;;1.00;1.00;;;;;;;;5066837;28;45444;-81
2023/09/20 08:05:20;;;;;;;;;3.00;1.75;;;;;;;;5070804;28;45370;-81
2023/09/20 08:07:45;;;;;;;;;3.00;2.00;;;;;;;;5055552;28;45745;-80
2023/09/20 08:10:10;;;;;;;;;1.50;1.00;;;;;;;;5061854;28;45880;-80
2023/09/20 08:12:36;;;;;;;;;1.00;1.00;;;;;;;;5068347;28;45586;-81
2023/09/20 08:15:01;;;;;;;;;3.75;1.25;;;;;;;;5065065;28;45682;-80
2023/09/20 08:20:10;;;;;;;;;4.75;2.00;;;;;;;;5068049;27;45439;-81
2023/09/20 09:01:01;;;;;;;;;2.00;2.00;;;;;;;;5083465;27;45334;-79
2023/09/20 09:03:27;;;;;;;;;1.50;1.50;;;;;;;;5086017;27;45567;-78
2023/09/20 09:05:53;;;;;;;;;3.00;2.00;;;;;;;;5082315;27;45434;-79
2023/09/20 09:08:19;;;;;;;;;2.00;1.00;;;;;;;;5084521;27;45707;-79
2023/09/20 09:10:44;;;;;;;;;5.25;2.00;;;;;;;;5079918;27;45551;-80
2023/09/20 09:13:09;;;;;;;;;3.00;2.50;;;;;;;;5066296;27;46022;-80
2023/09/20 09:15:35;;;;;;;;;2.50;2.50;;;;;;;;5063668;27;45790;-80
2023/09/20 09:18:00;;;;;;;;;1.75;1.75;;;;;;;;5087321;27;45682;-81
2023/09/20 09:20:32;;;;;;;;;2.00;2.00;;;;;;;;5078071;27;45846;-80
2023/09/20 09:22:58;;;;;;;;;4.00;3.00;;;;;;;;5066376;27;46267;-80
2023/09/20 09:25:30;;;;;;;;;2.25;1.75;;;;;;;;5075260;27;45558;-79
2023/09/20 09:27:55;;;;;;;;;6.50;4.00;;;;;;;;5056142;27;45727;-79
2023/09/20 09:30:22;;;;;;;;;2.00;2.00;;;;;;;;5084279;27;46010;-81
2023/09/20 09:32:48;;;;;;;;;3.00;3.00;;;;;;;;5082045;27;45545;-81
2023/09/20 09:35:18;;;;;;;;;2.75;2.00;;;;;;;;5066491;27;45504;-82
2023/09/20 09:37:44;;;;;;;;;2.00;2.00;;;;;;;;5074189;28;45370;-81
2023/09/20 09:40:09;;;;;;;;;2.00;2.00;;;;;;;;5098385;27;44878;-80
2023/09/20 09:42:35;;;;;;;;;1.25;1.25;;;;;;;;5097709;27;45914;-81
2023/09/20 09:45:03;;;;;;;;;0.00;0.00;;;;;;;;5090183;27;45465;-83
2023/09/20 09:47:30;;;;;;;;;2.00;2.00;;;;;;;;5086734;27;44851;-81
2023/09/20 09:49:55;;;;;;;;;3.50;2.00;;;;;;;;5081621;27;45755;-83
2023/09/20 09:52:24;;;;;;;;;2.00;1.00;;;;;;;;5088000;27;45804;-82
2023/09/20 09:54:53;;;;;;;;;2.00;1.80;;;;;;;;5093255;27;45480;-81
2023/09/20 09:57:19;;;;;;;;;1.25;0.50;;;;;;;;5083133;27;45410;-81
2023/09/20 09:59:47;;;;;;;;;2.50;1.50;;;;;;;;5095253;27;45421;-84
2023/09/20 10:02:24;;;;;;;;;2.00;2.00;;;;;;;;5089924;27;45382;-82
2023/09/20 10:04:53;;;;;;;;;3.25;2.25;;;;;;;;5099031;27;45447;-81
2023/09/20 10:07:22;;;;;;;;;1.50;1.50;;;;;;;;5092053;27;45639;-81
2023/09/20 10:09:49;;;;;;;;;1.50;1.50;;;;;;;;5072573;27;45772;-82
2023/09/20 10:12:15;;;;;;;;;1.00;1.00;;;;;;;;5098475;27;46453;-83
2023/09/20 10:14:42;;;;;;;;;1.50;1.00;;;;;;;;5070223;28;45828;-81
2023/09/20 10:17:15;;;;;;;;;1.75;1.00;;;;;;;;5066675;27;45931;-85
2023/09/20 10:19:41;;;;;;;;;1.50;1.50;;;;;;;;5060823;27;46037;-82
2023/09/20 10:22:08;;;;;;;;;4.25;2.00;;;;;;;;5090540;27;46172;-82
2023/09/20 10:24:43;;;;;;;;;3.60;1.00;;;;;;;;5087457;27;45443;-82
2023/09/20 10:27:27;;;;;;;;;3.00;1.25;;;;;;;;5081639;27;45769;-87
2023/09/20 10:29:58;;;;;;;;;2.50;1.00;;;;;;;;5084748;27;45973;-81
2023/09/20 10:32:28;;;;;;;;;2.00;2.00;;;;;;;;5091975;27;45936;-80
2023/09/20 10:35:13;;;;;;;;;2.20;1.20;;;;;;;;5076830;27;44859;-79
2023/09/20 10:37:39;;;;;;;;;1.00;1.00;;;;;;;;5054597;27;45974;-77
2023/09/20 10:40:12;;;;;;;;;1.75;1.00;;;;;;;;5086268;27;45940;-80
2023/09/20 10:42:50;;;;;;;;;3.00;1.25;;;;;;;;5075500;27;46292;-80
2023/09/20 10:45:18;;;;;;;;;1.25;1.25;;;;;;;;5080773;27;44955;-80
2023/09/20 10:47:47;;;;;;;;;2.50;2.00;;;;;;;;5081215;27;45600;-80
2023/09/20 10:50:33;;;;;;;;;1.25;1.00;;;;;;;;5070186;27;46120;-81
2023/09/20 10:52:58;;;;;;;;;2.00;1.00;;;;;;;;5086658;27;46322;-80
2023/09/20 10:55:23;;;;;;;;;1.25;1.25;;;;;;;;5091583;27;45422;-81
2023/09/20 10:57:50;;;;;;;;;2.00;2.00;;;;;;;;5090882;27;45974;-83
2023/09/20 11:00:25;;;;;;;;;3.00;2.00;;;;;;;;5067314;27;45920;-82
2023/09/20 11:02:56;;;;;;;;;1.50;1.00;;;;;;;;5082973;27;46297;-84
2023/09/20 11:05:22;;;;;;;;;3.75;2.00;;;;;;;;5068533;27;45470;-79
2023/09/20 11:07:47;;;;;;;;;1.00;1.00;;;;;;;;5089322;27;46059;-79
2023/09/20 11:10:19;;;;;;;;;1.00;1.00;;;;;;;;5087125;27;45946;-80
2023/09/20 11:12:44;;;;;;;;;1.00;1.00;;;;;;;;5089371;27;46162;-81
2023/09/20 11:15:10;;;;;;;;;0.50;0.50;;;;;;;;5096537;27;45839;-81
2023/09/20 11:17:38;;;;;;;;;2.25;1.00;;;;;;;;5099461;27;45426;-79
2023/09/20 11:20:06;;;;;;;;;2.00;1.00;;;;;;;;5085002;27;46526;-80
2023/09/20 11:22:35;;;;;;;;;0.80;0.80;;;;;;;;5081607;27;45745;-78
2023/09/20 11:25:04;;;;;;;;;1.00;1.00;;;;;;;;5085095;27;45480;-80
2023/09/20 11:27:30;;;;;;;;;1.00;1.00;;;;;;;;5084079;27;45599;-80
2023/09/20 11:30:04;;;;;;;;;2.25;1.00;;;;;;;;5086556;27;45371;-79
2023/09/20 11:32:30;;;;;;;;;1.25;1.25;;;;;;;;5087434;27;45576;-79
2023/09/20 11:34:56;;;;;;;;;0.40;0.20;;;;;;;;5085438;27;45512;-80
2023/09/20 11:37:22;;;;;;;;;2.00;0.75;;;;;;;;5088792;27;45634;-80
2023/09/20 11:39:48;;;;;;;;;1.75;1.75;;;;;;;;5082193;27;45686;-81
2023/09/20 11:42:26;;;;;;;;;1.75;1.00;;;;;;;;5085038;27;47139;-82
2023/09/20 11:44:56;;;;;;;;;2.00;2.00;;;;;;;;5088260;27;45457;-78
2023/09/20 11:47:21;;;;;;;;;1.75;1.75;;;;;;;;5083477;27;45461;-78
2023/09/20 11:49:47;;;;;;;;;0.00;0.00;;;;;;;;5092685;27;45798;-80
2023/09/20 11:52:16;;;;;;;;;2.00;1.00;;;;;;;;5096508;27;47752;-79
2023/09/20 11:54:43;;;;;;;;;3.00;2.25;;;;;;;;5097488;27;44820;-79
2023/09/20 11:57:15;;;;;;;;;2.75;1.00;;;;;;;;5092146;27;45659;-79
2023/09/20 11:59:45;;;;;;;;;1.00;1.00;;;;;;;;5089560;27;45525;-79
2023/09/20 12:02:12;;;;;;;;;0.50;0.50;;;;;;;;5097903;27;45131;-81
2023/09/20 12:04:38;;;;;;;;;1.00;1.00;;;;;;;;5090884;27;45465;-78
2023/09/20 12:07:03;;;;;;;;;2.00;2.00;;;;;;;;5087558;27;45426;-78
2023/09/20 12:09:29;;;;;;;;;2.25;2.00;;;;;;;;5078977;27;45951;-77
2023/09/20 12:11:54;;;;;;;;;1.00;1.00;;;;;;;;5102277;27;45503;-78
2023/09/20 12:14:19;;;;;;;;;1.00;1.00;;;;;;;;5097490;27;45454;-77
2023/09/20 12:16:48;;;;;;;;;1.25;1.25;;;;;;;;5084210;27;45868;-78
2023/09/20 12:19:17;;;;;;;;;2.00;2.00;;;;;;;;5107301;27;45647;-80
2023/09/20 12:21:45;;;;;;;;;1.75;1.75;;;;;;;;5105292;27;45804;-78
2023/09/20 12:24:11;;;;;;;;;1.50;1.00;;;;;;;;5095877;27;45391;-79
2023/09/20 12:26:37;;;;;;;;;2.50;1.00;;;;;;;;5089988;27;45974;-81
2023/09/20 12:29:02;;;;;;;;;1.00;1.00;;;;;;;;5094338;27;45838;-80
2023/09/20 12:31:27;;;;;;;;;3.00;1.25;;;;;;;;5061770;28;48098;-81
2023/09/20 12:33:53;;;;;;;;;2.00;2.00;;;;;;;;5079945;27;45469;-79
2023/09/20 12:36:21;;;;;;;;;2.50;2.50;;;;;;;;5086377;27;45456;-81
2023/09/20 12:38:46;;;;;;;;;2.50;1.25;;;;;;;;5073097;27;45753;-80
2023/09/20 12:41:11;;;;;;;;;1.00;1.00;;;;;;;;5062737;27;46914;-81
2023/09/20 12:43:37;;;;;;;;;2.00;2.00;;;;;;;;5088325;27;45402;-81
2023/09/20 12:46:03;;;;;;;;;2.25;2.25;;;;;;;;5070613;28;45951;-81
2023/09/20 12:48:28;;;;;;;;;3.00;1.75;;;;;;;;5099913;27;45556;-80
2023/09/20 12:50:53;;;;;;;;;2.00;2.00;;;;;;;;5070490;27;46237;-80
2023/09/20 12:53:19;;;;;;;;;2.00;2.00;;;;;;;;5084041;27;45790;-83
2023/09/20 12:55:45;;;;;;;;;4.00;2.75;;;;;;;;5084615;27;45605;-82
2023/09/20 12:58:13;;;;;;;;;2.75;2.75;;;;;;;;5078837;27;46045;-82
2023/09/20 13:00:39;;;;;;;;;3.50;2.50;;;;;;;;5062536;27;46310;-82
2023/09/20 13:03:07;;;;;;;;;3.00;1.25;;;;;;;;5079210;27;45489;-81
2023/09/20 13:05:32;;;;;;;;;2.50;2.50;;;;;;;;5071064;27;45521;-82
2023/09/20 13:07:57;;;;;;;;;2.00;2.00;;;;;;;;5083767;27;45782;-80
2023/09/20 13:10:23;;;;;;;;;3.25;3.25;;;;;;;;5069945;27;47588;-78
2023/09/20 13:12:48;;;;;;;;;3.00;3.00;;;;;;;;5081266;27;45421;-79
2023/09/20 13:15:14;;;;;;;;;3.75;2.00;;;;;;;;5085012;27;45585;-80
2023/09/20 13:17:44;;;;;;;;;3.25;3.25;;;;;;;;5072008;27;45763;-80
2023/09/20 13:20:12;;;;;;;;;3.75;2.50;;;;;;;;5079640;27;46536;-82
2023/09/20 13:22:38;;;;;;;;;3.25;3.25;;;;;;;;5072960;27;45891;-80
2023/09/20 13:25:03;;;;;;;;;3.00;2.00;;;;;;;;5061946;27;44835;-81
2023/09/20 13:27:28;;;;;;;;;2.00;2.00;;;;;;;;5068994;27;45340;-81
2023/09/20 13:29:54;;;;;;;;;2.00;2.00;;;;;;;;5072116;27;46881;-81
2023/09/20 13:32:19;;;;;;;;;4.00;3.50;;;;;;;;5074471;28;45727;-81
2023/09/20 13:34:45;;;;;;;;;2.00;2.00;;;;;;;;5069377;27;45384;-82
2023/09/20 13:37:12;;;;;;;;;3.00;3.00;;;;;;;;5062634;28;45850;-81
2023/09/20 13:39:42;;;;;;;;;3.00;2.50;;;;;;;;5066531;28;45745;-81
2023/09/20 13:42:08;;;;;;;;;1.00;1.00;;;;;;;;5069201;27;45461;-80
2023/09/20 13:44:33;;;;;;;;;4.00;3.00;;;;;;;;5049849;28;45473;-81
2023/09/20 13:47:04;;;;;;;;;2.75;2.75;;;;;;;;5074236;28;45757;-81
2023/09/20 13:49:30;;;;;;;;;2.00;2.00;;;;;;;;5069833;27;45989;-83
2023/09/20 13:51:55;;;;;;;;;3.00;3.00;;;;;;;;5059448;27;45720;-80
2023/09/20 13:54:22;;;;;;;;;2.50;2.00;;;;;;;;5068328;28;45423;-81
2023/09/20 13:56:48;;;;;;;;;3.25;2.00;;;;;;;;5061824;27;45411;-82
2023/09/20 13:59:15;;;;;;;;;1.75;1.75;;;;;;;;5068686;28;45798;-80
2023/09/20 14:01:41;;;;;;;;;1.75;1.75;;;;;;;;5069880;28;45865;-82
2023/09/20 14:04:07;;;;;;;;;4.00;2.50;;;;;;;;5066189;28;45945;-80
2023/09/20 14:06:32;;;;;;;;;1.50;1.50;;;;;;;;5062735;28;45746;-81
2023/09/20 14:08:57;;;;;;;;;1.50;1.50;;;;;;;;5062635;27;45678;-80
2023/09/20 14:11:23;;;;;;;;;1.00;1.00;;;;;;;;5070881;27;45599;-82
2023/09/20 14:13:48;;;;;;;;;1.75;1.75;;;;;;;;5071460;28;46069;-80
2023/09/20 14:16:14;;;;;;;;;2.00;2.00;;;;;;;;5061184;28;45928;-79
2023/09/20 14:18:40;;;;;;;;;2.00;2.00;;;;;;;;5060661;27;45786;-81
2023/09/20 14:21:05;;;;;;;;;2.00;2.00;;;;;;;;5074376;27;45903;-80
2023/09/20 14:23:31;;;;;;;;;1.50;1.50;;;;;;;;5073774;27;45469;-79
2023/09/20 14:25:56;;;;;;;;;3.25;2.75;;;;;;;;5064311;28;45837;-80
2023/09/20 14:28:22;;;;;;;;;5.25;2.50;;;;;;;;5064150;27;47048;-80
2023/09/20 14:30:53;;;;;;;;;1.00;1.00;;;;;;;;5066638;28;45462;-81
2023/09/20 14:33:19;;;;;;;;;3.00;1.75;;;;;;;;5067896;27;45824;-81
2023/09/20 14:35:44;;;;;;;;;3.25;2.75;;;;;;;;5064057;27;45807;-82
2023/09/20 14:38:10;;;;;;;;;3.00;2.25;;;;;;;;5063957;27;45525;-82
2023/09/20 14:40:36;;;;;;;;;2.00;2.00;;;;;;;;5063760;27;45759;-82
2023/09/20 14:43:02;;;;;;;;;1.00;1.00;;;;;;;;5061261;28;45801;-81
2023/09/20 14:45:29;;;;;;;;;1.00;1.00;;;;;;;;5068492;28;46004;-82
2023/09/20 14:47:56;;;;;;;;;2.00;2.00;;;;;;;;5064195;27;45630;-82
2023/09/20 14:50:21;;;;;;;;;2.00;2.00;;;;;;;;5058040;28;45527;-81
2023/09/20 14:52:47;;;;;;;;;1.00;1.00;;;;;;;;5071731;28;45735;-80
2023/09/20 14:55:13;;;;;;;;;3.00;1.25;;;;;;;;5076322;28;45739;-81
2023/09/20 14:57:41;;;;;;;;;3.25;2.00;;;;;;;;5069475;28;46201;-83
2023/09/20 15:00:07;;;;;;;;;1.00;1.00;;;;;;;;5073987;27;45563;-81
2023/09/20 15:02:33;;;;;;;;;2.00;2.00;;;;;;;;5072170;27;45741;-80
2023/09/20 15:05:03;;;;;;;;;3.75;2.75;;;;;;;;5068214;27;45974;-81
2023/09/20 15:07:29;;;;;;;;;1.50;1.00;;;;;;;;5047672;28;45827;-80
2023/09/20 15:09:54;;;;;;;;;3.25;2.25;;;;;;;;5042073;28;45978;-82
2023/09/20 15:12:20;;;;;;;;;2.25;2.25;;;;;;;;5077985;27;46028;-79
2023/09/20 15:14:48;;;;;;;;;1.00;1.00;;;;;;;;5078492;27;45847;-81
2023/09/20 15:17:13;;;;;;;;;2.00;2.00;;;;;;;;5053515;28;47968;-80
2023/09/20 15:19:39;;;;;;;;;2.00;2.00;;;;;;;;5042172;28;45455;-80
2023/09/20 15:22:04;;;;;;;;;1.00;1.00;;;;;;;;5047602;28;45757;-81